Terminal Aerodrome Forecast
Issued by NWS

Home | Current Version | Previous Version | Text Only | Print | Product List | Glossary On
Versions: 1 2 3 4 5 6 7 8 9 10 11 12 13 14 15 16 17 18 19 20 21 22 23 24 25 26 27 28 29
000
FTUS46 KSEW 292351
TAFSEA
TAF
KSEA 292351Z 3000/3106 22018G28KT P6SM SCT040 BKN100
     FM300100 22012KT 5SM -RA BR BKN030 OVC050
     FM300400 21010KT P6SM -SHRA SCT025 BKN040
     FM301400 19008KT P6SM BKN030 OVC060
     FM302000 21012KT P6SM BKN050 BKN080=

USA.gov is the U.S. government's official web portal to all federal, state and local government web resources and services.